createdAt,value
2019-03-22T00:00:46.871Z,6.03
2019-03-22T00:03:24.375Z,5.63
2019-03-22T00:06:13.554Z,5.83
2019-03-22T00:08:43.751Z,6.03
2019-03-22T00:11:14.083Z,5.43
2019-03-22T00:13:44.406Z,5.70
2019-03-22T00:16:14.932Z,6.17
2019-03-22T00:18:45.252Z,5.53
2019-03-22T00:21:15.493Z,5.77
2019-03-22T00:23:45.595Z,5.60
2019-03-22T00:26:15.733Z,6.03
2019-03-22T00:28:45.948Z,6.10
2019-03-22T00:31:16.141Z,5.40
2019-03-22T00:33:46.383Z,5.23
2019-03-22T00:36:16.688Z,5.53
2019-03-22T00:38:46.983Z,4.77
2019-03-22T00:41:17.135Z,5.40
2019-03-22T00:43:49.332Z,5.10
2019-03-22T00:46:19.576Z,5.07
2019-03-22T00:48:49.901Z,4.50
2019-03-22T00:51:20.185Z,4.70
2019-03-22T00:53:50.316Z,5.03
2019-03-22T00:56:20.415Z,4.83
2019-03-22T00:58:50.555Z,4.47
2019-03-22T01:01:20.670Z,4.87
2019-03-22T01:03:50.810Z,4.60
2019-03-22T01:06:20.887Z,6.33
2019-03-22T01:08:51.076Z,4.77
2019-03-22T01:11:22.271Z,5.53
2019-03-22T01:13:52.535Z,4.93
2019-03-22T01:16:22.832Z,5.50
2019-03-22T01:18:52.955Z,5.27
2019-03-22T01:21:41.828Z,5.67
2019-03-22T01:24:11.983Z,5.27
2019-03-22T01:27:00.831Z,5.47
2019-03-22T01:29:30.931Z,5.33
2019-03-22T01:32:01.242Z,5.90
2019-03-22T01:34:31.323Z,5.63
2019-03-22T01:37:01.487Z,5.67
2019-03-22T01:39:31.602Z,5.60
2019-03-22T01:42:02.735Z,5.83
2019-03-22T01:44:32.844Z,5.13
2019-03-22T01:47:03.037Z,5.50
2019-03-22T01:49:33.302Z,6.20
2019-03-22T01:52:03.405Z,6.13
2019-03-22T01:54:33.592Z,5.53
2019-03-22T01:57:03.875Z,6.70
2019-03-22T01:59:34.166Z,5.60
2019-03-22T02:02:04.451Z,5.20
2019-03-22T02:04:34.600Z,5.90
2019-03-22T02:07:04.777Z,5.50
2019-03-22T02:09:53.644Z,5.00
2019-03-22T02:12:23.806Z,5.30
2019-03-22T02:14:54.021Z,4.83
2019-03-22T02:17:24.283Z,4.83
2019-03-22T02:19:54.415Z,5.07
2019-03-22T02:22:24.875Z,5.13
2019-03-22T02:24:55.108Z,5.00
2019-03-22T02:27:25.375Z,5.40
2019-03-22T02:29:55.747Z,5.40
2019-03-22T02:32:25.959Z,4.90
2019-03-22T02:34:56.220Z,5.07
2019-03-22T02:37:26.349Z,5.33
2019-03-22T02:39:56.577Z,5.07
2019-03-22T02:42:26.698Z,6.73
2019-03-22T02:44:56.804Z,5.70
2019-03-22T02:47:26.967Z,5.50
2019-03-22T02:49:57.259Z,5.17
2019-03-22T02:52:27.392Z,6.27
2019-03-22T02:54:57.513Z,5.67
2019-03-22T02:57:27.611Z,5.47
2019-03-22T02:59:57.768Z,5.40
2019-03-22T03:02:28.038Z,5.33
2019-03-22T03:04:58.189Z,5.10
2019-03-22T03:07:28.268Z,5.33
2019-03-22T03:09:58.556Z,5.70
2019-03-22T03:12:28.831Z,5.33
2019-03-22T03:14:58.957Z,5.60
2019-03-22T03:17:29.128Z,5.47
2019-03-22T03:19:59.405Z,5.80
2019-03-22T03:22:29.558Z,5.17
2019-03-22T03:24:59.831Z,5.27
2019-03-22T03:27:29.999Z,5.27
2019-03-22T03:30:00.689Z,5.50
2019-03-22T03:32:30.989Z,4.87
2019-03-22T03:35:01.272Z,4.87
2019-03-22T03:37:31.488Z,5.40
2019-03-22T03:40:01.573Z,5.50
2019-03-22T03:42:31.952Z,5.17
2019-03-22T03:45:02.249Z,4.60
2019-03-22T03:47:32.339Z,4.63
2019-03-22T03:50:02.488Z,5.40
2019-03-22T03:52:32.586Z,4.90
2019-03-22T03:55:04.108Z,5.13
2019-03-22T03:57:34.250Z,4.80
2019-03-22T04:00:05.390Z,5.10
2019-03-22T04:02:35.544Z,4.93
2019-03-22T04:05:06.538Z,4.60
2019-03-22T04:07:36.786Z,4.67
2019-03-22T04:10:07.348Z,4.50
2019-03-22T04:12:37.542Z,4.77
2019-03-22T04:15:07.830Z,4.63
2019-03-22T04:17:38.151Z,4.93
2019-03-22T04:20:08.343Z,4.50
2019-03-22T04:22:38.437Z,5.03
2019-03-22T04:25:09.082Z,4.80
2019-03-22T04:27:39.285Z,5.47
2019-03-22T04:30:09.560Z,4.93
2019-03-22T04:32:39.751Z,4.13
2019-03-22T04:35:10.043Z,5.07
2019-03-22T04:37:40.236Z,5.17
2019-03-22T04:40:24.349Z,5.00
2019-03-22T04:42:54.578Z,4.63
2019-03-22T04:45:25.750Z,4.37
2019-03-22T04:48:02.543Z,4.20
2019-03-22T04:50:35.310Z,4.90
2019-03-22T04:53:06.520Z,5.80
2019-03-22T04:55:38.399Z,5.10
2019-03-22T04:58:09.687Z,5.60
2019-03-22T05:00:40.575Z,5.67
2019-03-22T05:03:12.456Z,5.83
2019-03-22T05:05:43.411Z,4.90
2019-03-22T05:08:14.737Z,5.70
2019-03-22T05:10:45.905Z,6.23
2019-03-22T05:13:19.368Z,6.80
2019-03-22T05:15:50.387Z,7.03
2019-03-22T05:18:21.297Z,5.80
2019-03-22T05:20:52.811Z,6.13
2019-03-22T05:23:25.183Z,6.30
2019-03-22T05:25:58.580Z,6.27
2019-03-22T05:28:31.385Z,6.00
2019-03-22T05:31:37.843Z,6.23
2019-03-22T05:34:08.012Z,6.37
2019-03-22T05:36:38.102Z,6.07
2019-03-22T05:39:10.063Z,6.10
2019-03-22T05:41:40.303Z,6.10
2019-03-22T05:44:11.921Z,6.77
2019-03-22T05:46:42.160Z,5.97
2019-03-22T05:49:12.318Z,6.53
2019-03-22T05:51:42.540Z,7.07
2019-03-22T05:54:12.771Z,7.00
2019-03-22T05:56:44.375Z,6.70
2019-03-22T05:59:14.628Z,8.27
2019-03-22T06:01:45.468Z,8.93
2019-03-22T06:04:15.780Z,8.97
2019-03-22T06:06:46.030Z,8.10
2019-03-22T06:09:19.075Z,8.03
2019-03-22T06:11:49.286Z,8.70
2019-03-22T06:14:19.546Z,9.13
2019-03-22T06:16:49.927Z,8.53
2019-03-22T06:19:20.179Z,9.47
2019-03-22T06:21:50.376Z,9.87
2019-03-22T06:24:24.294Z,8.80
2019-03-22T06:26:56.055Z,10.23
2019-03-22T06:29:26.295Z,12.07
2019-03-22T06:31:56.579Z,11.97
2019-03-22T06:34:26.858Z,13.10
2019-03-22T06:36:57.115Z,12.60
2019-03-22T06:39:27.341Z,12.43
2019-03-22T06:42:04.419Z,12.00
2019-03-22T06:44:43.591Z,11.53
2019-03-22T06:47:14.252Z,10.67
2019-03-22T06:49:45.724Z,13.27
2019-03-22T06:52:17.729Z,11.67
2019-03-22T06:54:50.396Z,11.03
2019-03-22T06:57:20.672Z,11.83
2019-03-22T06:59:52.818Z,11.53
2019-03-22T07:02:23.050Z,11.47
2019-03-22T07:04:55.142Z,12.90
2019-03-22T07:07:26.619Z,12.77
2019-03-22T07:09:57.826Z,13.47
2019-03-22T07:12:28.076Z,13.43
2019-03-22T07:14:59.289Z,14.00
2019-03-22T07:17:30.450Z,13.20
2019-03-22T07:20:07.970Z,12.93
2019-03-22T07:22:39.395Z,12.93
2019-03-22T07:25:09.821Z,13.83
2019-03-22T07:27:41.179Z,12.97
2019-03-22T07:30:18.701Z,13.63
2019-03-22T07:32:44.659Z,11.77
2019-03-22T07:35:15.359Z,11.47
2019-03-22T07:37:45.732Z,12.20
2019-03-22T07:40:17.987Z,12.10
2019-03-22T07:42:48.191Z,11.80
2019-03-22T07:45:18.416Z,12.87
2019-03-22T07:47:48.669Z,13.73
2019-03-22T07:50:20.016Z,13.67
2019-03-22T07:52:51.271Z,13.00
2019-03-22T07:55:22.472Z,13.70
2019-03-22T07:57:52.768Z,14.33
2019-03-22T08:00:30.694Z,13.97
2019-03-22T08:02:57.488Z,16.57
2019-03-22T08:05:28.668Z,17.37
2019-03-22T08:08:02.661Z,16.83
2019-03-22T08:10:32.883Z,17.10
2019-03-22T08:13:03.171Z,14.40
2019-03-22T08:15:35.855Z,16.17
2019-03-22T08:18:08.520Z,15.93
2019-03-22T08:20:39.084Z,17.63
2019-03-22T08:23:28.463Z,16.27
2019-03-22T08:25:58.598Z,15.37
2019-03-22T08:28:30.700Z,13.67
2019-03-22T08:31:02.092Z,14.63
2019-03-22T08:33:33.880Z,13.43
2019-03-22T08:36:07.154Z,14.60
2019-03-22T08:38:37.836Z,14.67
2019-03-22T08:41:08.217Z,14.10
2019-03-22T08:43:39.824Z,14.97
2019-03-22T08:46:10.073Z,16.00
2019-03-22T08:48:40.417Z,17.57
2019-03-22T08:51:10.751Z,16.17
2019-03-22T08:53:54.205Z,16.73
2019-03-22T08:56:12.763Z,17.03
2019-03-22T08:58:42.916Z,14.57
2019-03-22T09:01:12.992Z,14.13
2019-03-22T09:03:43.246Z,13.33
2019-03-22T09:06:13.612Z,12.43
2019-03-22T09:08:43.932Z,11.60
2019-03-22T09:11:18.064Z,12.17
2019-03-22T09:13:47.475Z,11.37
2019-03-22T09:16:17.731Z,14.33
2019-03-22T09:18:47.861Z,16.13
2019-03-22T09:21:17.982Z,15.53
2019-03-22T09:23:48.102Z,16.57
2019-03-22T09:26:19.981Z,17.63
2019-03-22T09:28:51.191Z,17.17
2019-03-22T09:31:23.788Z,15.83
2019-03-22T09:33:55.135Z,15.00
2019-03-22T09:36:25.390Z,13.87
2019-03-22T09:38:55.679Z,13.87
2019-03-22T09:41:25.836Z,12.60
2019-03-22T09:43:56.542Z,12.07
2019-03-22T09:46:29.530Z,14.80
2019-03-22T09:49:02.683Z,11.53
2019-03-22T09:51:32.859Z,11.50
2019-03-22T09:54:02.983Z,11.50
2019-03-22T09:56:46.290Z,11.67
2019-03-22T09:59:08.069Z,11.47
2019-03-22T10:01:39.412Z,12.60
2019-03-22T10:04:09.708Z,12.70
2019-03-22T10:06:59.559Z,12.23
2019-03-22T10:09:48.403Z,12.37
2019-03-22T10:12:18.601Z,13.57
2019-03-22T10:14:50.552Z,12.57
2019-03-22T10:17:26.152Z,12.53
2019-03-22T10:19:57.750Z,11.97
2019-03-22T10:22:28.185Z,11.70
2019-03-22T10:25:00.061Z,11.37
2019-03-22T10:27:31.855Z,10.67
2019-03-22T10:30:03.249Z,10.43
2019-03-22T10:32:33.591Z,10.77
2019-03-22T10:35:03.969Z,10.27
2019-03-22T10:37:34.047Z,9.57
2019-03-22T10:40:05.055Z,11.00
2019-03-22T10:42:37.053Z,13.47
2019-03-22T10:45:07.624Z,10.57
2019-03-22T10:47:37.935Z,11.90
2019-03-22T10:50:09.434Z,11.80
2019-03-22T10:52:40.586Z,12.00
2019-03-22T10:55:28.946Z,13.03
2019-03-22T10:57:46.834Z,11.93
2019-03-22T11:00:18.972Z,10.80
2019-03-22T11:02:50.166Z,10.60
2019-03-22T11:05:20.477Z,10.10
2019-03-22T11:07:52.130Z,12.07
2019-03-22T11:10:22.344Z,16.67
2019-03-22T11:12:52.563Z,12.03
2019-03-22T11:15:24.000Z,10.27
2019-03-22T11:17:54.467Z,11.10
2019-03-22T11:20:25.936Z,10.30
2019-03-22T11:22:56.047Z,11.30
2019-03-22T11:25:26.307Z,10.97
2019-03-22T11:27:56.545Z,11.27
2019-03-22T11:30:26.912Z,11.30
2019-03-22T11:32:57.104Z,11.03
2019-03-22T11:35:27.387Z,11.50
2019-03-22T11:37:57.542Z,10.37
2019-03-22T11:40:27.926Z,9.30
2019-03-22T11:43:08.011Z,9.17
2019-03-22T11:45:29.911Z,8.37
2019-03-22T11:48:00.618Z,7.37
2019-03-22T11:50:30.947Z,8.23
2019-03-22T11:53:03.273Z,7.30
2019-03-22T11:55:35.860Z,7.03
2019-03-22T11:58:08.092Z,6.53
2019-03-22T12:00:38.341Z,6.33
2019-03-22T12:03:08.788Z,5.30
2019-03-22T12:05:40.612Z,5.57
2019-03-22T12:08:12.208Z,5.63
2019-03-22T12:10:42.475Z,5.40
2019-03-22T12:13:12.621Z,4.90
2019-03-22T12:15:43.844Z,5.00
2019-03-22T12:18:16.475Z,4.90
2019-03-22T12:20:46.811Z,5.17
2019-03-22T12:23:16.942Z,5.70
2019-03-22T12:25:47.084Z,5.13
2019-03-22T12:28:19.035Z,5.63
2019-03-22T12:30:52.133Z,4.93
2019-03-22T12:33:22.389Z,4.40
2019-03-22T12:35:54.175Z,4.30
2019-03-22T12:38:25.495Z,3.83
2019-03-22T12:40:57.246Z,3.90
2019-03-22T12:43:30.191Z,3.77
2019-03-22T12:46:02.052Z,3.70
2019-03-22T12:48:33.443Z,4.00
2019-03-22T12:51:05.664Z,3.40
2019-03-22T12:53:35.963Z,2.73
2019-03-22T12:56:06.621Z,2.73
2019-03-22T12:58:37.760Z,2.70
2019-03-22T13:01:10.781Z,3.13
2019-03-22T13:03:40.975Z,2.53
2019-03-22T13:06:13.037Z,2.00
2019-03-22T13:08:45.345Z,2.17
2019-03-22T13:11:15.687Z,2.40
2019-03-22T13:13:45.760Z,2.60
2019-03-22T13:16:17.919Z,2.90
2019-03-22T13:18:50.556Z,1.90
2019-03-22T13:21:20.866Z,2.00
2019-03-22T13:23:51.127Z,1.60
2019-03-22T13:26:21.379Z,2.07
2019-03-22T13:28:51.625Z,2.10
2019-03-22T13:31:21.952Z,2.07
2019-03-22T13:33:52.180Z,1.80
2019-03-22T13:36:24.095Z,1.30
2019-03-22T13:38:56.590Z,2.13
2019-03-22T13:41:28.639Z,1.70
2019-03-22T13:44:00.664Z,1.30
2019-03-22T13:46:39.895Z,1.57
2019-03-22T13:49:02.799Z,1.50
2019-03-22T13:51:33.187Z,1.43
2019-03-22T13:54:04.835Z,1.33
2019-03-22T13:56:36.011Z,1.40
2019-03-22T13:59:06.175Z,1.43
2019-03-22T14:01:36.277Z,1.40
2019-03-22T14:04:06.488Z,1.07
2019-03-22T14:06:38.563Z,0.93
2019-03-22T14:09:11.947Z,1.20
2019-03-22T14:11:43.892Z,2.00
2019-03-22T14:14:14.083Z,1.93
2019-03-22T14:16:44.427Z,1.43
2019-03-22T14:19:33.263Z,1.73
2019-03-22T14:22:03.484Z,1.90
2019-03-22T14:24:37.495Z,1.80
2019-03-22T14:27:26.340Z,1.73
2019-03-22T14:29:56.795Z,1.20
2019-03-22T14:32:29.037Z,1.40
2019-03-22T14:35:01.067Z,1.50
2019-03-22T14:37:31.291Z,2.20
2019-03-22T14:40:01.497Z,1.50
2019-03-22T14:42:32.928Z,1.73
2019-03-22T14:45:04.860Z,1.20
2019-03-22T14:47:35.074Z,1.37
2019-03-22T14:50:05.384Z,1.13
2019-03-22T14:52:37.190Z,1.13
2019-03-22T14:55:09.071Z,1.70
2019-03-22T14:57:48.318Z,1.83
2019-03-22T15:00:12.584Z,1.70
2019-03-22T15:02:43.932Z,2.03
2019-03-22T15:05:14.265Z,2.27
2019-03-22T15:07:44.379Z,2.20
2019-03-22T15:10:15.295Z,1.93
2019-03-22T15:12:45.900Z,2.00
2019-03-22T15:15:32.571Z,2.27
2019-03-22T15:18:10.843Z,4.17
2019-03-22T15:21:12.352Z,2.80
2019-03-22T15:24:03.597Z,3.07
2019-03-22T15:26:49.094Z,2.83
2019-03-22T15:29:33.425Z,2.90
2019-03-22T15:32:21.173Z,2.70
2019-03-22T15:35:09.168Z,3.17
2019-03-22T15:38:12.295Z,2.67
2019-03-22T15:40:45.367Z,3.27
2019-03-22T15:43:15.610Z,3.40
2019-03-22T15:45:46.138Z,2.80
2019-03-22T15:48:17.612Z,2.47
2019-03-22T15:50:47.768Z,2.70
2019-03-22T15:53:20.077Z,3.03
2019-03-22T15:55:51.520Z,3.40
2019-03-22T15:58:22.103Z,3.50
2019-03-22T16:00:53.472Z,3.23
2019-03-22T16:03:25.975Z,3.80
2019-03-22T16:05:56.413Z,3.63
2019-03-22T16:08:28.145Z,3.90
2019-03-22T16:10:59.305Z,3.23
2019-03-22T16:13:29.392Z,3.50
2019-03-22T16:15:59.643Z,3.60
2019-03-22T16:18:31.688Z,4.33
2019-03-22T16:21:02.789Z,3.83
2019-03-22T16:23:37.908Z,5.37
2019-03-22T16:26:10.146Z,4.30
2019-03-22T16:28:40.272Z,4.03
2019-03-22T16:31:10.602Z,4.97
2019-03-22T16:33:40.966Z,3.97
2019-03-22T16:36:12.639Z,4.03
2019-03-22T16:38:42.971Z,9.13
2019-03-22T16:41:13.222Z,5.53
2019-03-22T16:43:43.375Z,4.37
2019-03-22T16:46:15.339Z,5.10
2019-03-22T16:48:45.640Z,4.73
2019-03-22T16:51:15.878Z,5.13
2019-03-22T16:53:46.035Z,4.13
2019-03-22T16:56:16.312Z,5.97
2019-03-22T16:58:46.396Z,5.37
2019-03-22T17:01:16.544Z,5.10
2019-03-22T17:03:46.719Z,6.30
2019-03-22T17:06:16.987Z,7.47
2019-03-22T17:08:47.196Z,6.63
2019-03-22T17:11:17.306Z,6.67
2019-03-22T17:13:47.415Z,6.60
2019-03-22T17:16:17.612Z,6.17
2019-03-22T17:18:49.702Z,6.40
2019-03-22T17:21:19.891Z,13.97
2019-03-22T17:23:50.191Z,7.40
2019-03-22T17:26:21.999Z,7.13
2019-03-22T17:28:54.540Z,6.10
2019-03-22T17:31:27.781Z,6.67
2019-03-22T17:33:58.063Z,6.20
2019-03-22T17:36:31.401Z,6.17
2019-03-22T17:39:03.960Z,16.50
2019-03-22T17:41:34.107Z,7.50
2019-03-22T17:44:04.270Z,5.03
2019-03-22T17:46:34.640Z,4.53
2019-03-22T17:49:05.255Z,5.00
2019-03-22T17:51:35.427Z,5.00
2019-03-22T17:54:05.516Z,16.77
2019-03-22T17:56:35.615Z,7.20
2019-03-22T17:59:05.963Z,4.97
2019-03-22T18:01:36.072Z,5.30
2019-03-22T18:04:06.195Z,4.50
2019-03-22T18:06:36.604Z,3.80
2019-03-22T18:09:08.919Z,3.90
2019-03-22T18:11:39.280Z,3.90
2019-03-22T18:14:09.577Z,3.70
2019-03-22T18:16:39.664Z,4.27
2019-03-22T18:19:09.792Z,3.73
2019-03-22T18:21:39.904Z,3.93
2019-03-22T18:24:10.042Z,3.30
2019-03-22T18:26:40.127Z,3.87
2019-03-22T18:29:10.251Z,4.33
2019-03-22T18:31:40.598Z,3.53
2019-03-22T18:34:10.710Z,3.80
2019-03-22T18:36:40.834Z,3.10
2019-03-22T18:39:10.972Z,7.27
2019-03-22T18:41:41.132Z,3.73
2019-03-22T18:44:11.290Z,4.17
2019-03-22T18:46:41.447Z,3.00
2019-03-22T18:49:11.733Z,3.30
2019-03-22T18:51:41.849Z,2.60
2019-03-22T18:54:12.024Z,4.43
2019-03-22T18:56:43.768Z,3.23
2019-03-22T18:59:13.846Z,3.23
2019-03-22T19:01:44.033Z,3.60
2019-03-22T19:04:14.378Z,3.17
2019-03-22T19:06:44.612Z,4.20
2019-03-22T19:09:14.751Z,3.93
2019-03-22T19:11:44.847Z,4.00
2019-03-22T19:14:15.005Z,4.30
2019-03-22T19:16:45.561Z,5.10
2019-03-22T19:19:15.883Z,4.73
2019-03-22T19:21:46.152Z,4.50
2019-03-22T19:24:16.296Z,4.70
2019-03-22T19:26:46.496Z,5.17
2019-03-22T19:29:16.751Z,5.33
2019-03-22T19:31:47.003Z,6.07
2019-03-22T19:34:17.273Z,5.50
2019-03-22T19:36:47.412Z,7.03
2019-03-22T19:39:17.509Z,7.00
2019-03-22T19:41:47.651Z,5.43
2019-03-22T19:44:17.809Z,5.43
2019-03-22T19:46:48.072Z,6.17
2019-03-22T19:49:18.208Z,4.80
2019-03-22T19:51:48.436Z,5.50
2019-03-22T19:54:18.554Z,4.70
2019-03-22T19:56:48.679Z,5.37
2019-03-22T19:59:18.771Z,4.93
2019-03-22T20:01:48.886Z,5.37
2019-03-22T20:04:19.036Z,5.90
2019-03-22T20:06:49.152Z,13.10
2019-03-22T20:09:19.232Z,5.83
2019-03-22T20:11:49.560Z,6.10
2019-03-22T20:14:19.868Z,5.73
2019-03-22T20:16:49.892Z,5.77
2019-03-22T20:19:20.168Z,7.20
2019-03-22T20:21:50.680Z,6.00
2019-03-22T20:24:20.878Z,5.97
2019-03-22T20:26:51.123Z,5.57
2019-03-22T20:29:21.259Z,5.17
2019-03-22T20:31:51.443Z,6.30
2019-03-22T20:34:21.679Z,7.10
2019-03-22T20:36:51.791Z,5.93
2019-03-22T20:39:21.908Z,6.20
2019-03-22T20:41:52.169Z,5.63
2019-03-22T20:44:33.390Z,6.53
2019-03-22T20:46:54.760Z,6.97
2019-03-22T20:49:24.948Z,7.07
2019-03-22T20:51:55.069Z,7.13
2019-03-22T20:54:27.242Z,6.73
2019-03-22T20:56:57.367Z,7.60
2019-03-22T20:59:29.383Z,8.30
2019-03-22T21:02:01.495Z,7.17
2019-03-22T21:04:31.693Z,6.63
2019-03-22T21:07:03.143Z,5.87
2019-03-22T21:09:33.352Z,6.80
2019-03-22T21:12:04.027Z,5.97
2019-03-22T21:14:36.406Z,5.97
2019-03-22T21:17:06.634Z,5.93
2019-03-22T21:19:36.829Z,5.63
2019-03-22T21:22:06.972Z,5.27
2019-03-22T21:24:37.157Z,5.10
2019-03-22T21:27:15.023Z,5.30
2019-03-22T21:29:43.966Z,5.40
2019-03-22T21:32:10.972Z,5.73
